createdAt,value
2022-07-29T00:00:59.748Z,27.94
2022-07-29T00:03:26.547Z,27.83
2022-07-29T00:05:54.906Z,27.85
2022-07-29T00:08:21.610Z,27.75
2022-07-29T00:10:48.857Z,27.66
2022-07-29T00:13:15.785Z,27.57
2022-07-29T00:15:42.900Z,27.50
2022-07-29T00:18:09.562Z,27.56
2022-07-29T00:20:36.265Z,27.40
2022-07-29T00:23:02.946Z,27.31
2022-07-29T00:25:29.559Z,27.46
2022-07-29T00:27:57.848Z,27.70
2022-07-29T00:30:24.589Z,27.72
2022-07-29T00:32:51.275Z,27.76
2022-07-29T00:35:36.531Z,27.81
2022-07-29T00:38:03.110Z,27.70
2022-07-29T00:40:29.799Z,27.58
2022-07-29T00:42:56.682Z,27.73
2022-07-29T00:45:23.543Z,27.70
2022-07-29T00:47:50.446Z,27.64
2022-07-29T00:50:17.980Z,27.85
2022-07-29T00:52:44.885Z,28.01
2022-07-29T00:55:13.991Z,27.88
2022-07-29T00:57:42.385Z,27.79
2022-07-29T01:00:13.116Z,27.74
2022-07-29T01:02:39.650Z,27.73
2022-07-29T01:05:07.425Z,27.55
2022-07-29T01:07:37.236Z,27.39
2022-07-29T01:10:05.637Z,27.27
2022-07-29T01:12:34.462Z,27.39
2022-07-29T01:15:02.601Z,27.19
2022-07-29T01:17:53.193Z,27.14
2022-07-29T01:21:07.020Z,27.02
2022-07-29T01:23:52.475Z,27.00
2022-07-29T01:26:32.414Z,27.12
2022-07-29T01:29:08.365Z,27.37
2022-07-29T01:32:02.592Z,27.31
2022-07-29T01:35:11.505Z,27.28
2022-07-29T01:38:10.487Z,27.40
2022-07-29T01:40:46.934Z,27.22
2022-07-29T01:43:21.277Z,27.03
2022-07-29T01:45:51.814Z,26.93
2022-07-29T01:48:25.825Z,27.18
2022-07-29T01:51:08.715Z,27.06
2022-07-29T01:53:56.071Z,27.26
2022-07-29T01:56:24.135Z,27.11
2022-07-29T01:58:53.208Z,26.84
2022-07-29T02:01:21.240Z,26.72
2022-07-29T02:03:49.964Z,26.56
2022-07-29T02:06:20.184Z,26.66
2022-07-29T02:08:48.811Z,26.60
2022-07-29T02:11:15.759Z,26.78
2022-07-29T02:13:44.110Z,26.91
2022-07-29T02:16:11.629Z,26.80
2022-07-29T02:18:41.855Z,27.03
2022-07-29T02:21:14.746Z,27.08
2022-07-29T02:23:50.981Z,27.30
2022-07-29T02:26:20.472Z,27.14
2022-07-29T02:28:48.439Z,27.09
2022-07-29T02:31:17.608Z,27.16
2022-07-29T02:33:46.777Z,27.11
2022-07-29T02:36:14.364Z,26.90
2022-07-29T02:38:52.680Z,27.04
2022-07-29T02:41:30.625Z,27.10
2022-07-29T02:44:04.639Z,27.09
2022-07-29T02:46:35.615Z,26.76
2022-07-29T02:49:17.313Z,26.95
2022-07-29T02:51:53.968Z,26.94
2022-07-29T02:54:34.794Z,26.91
2022-07-29T02:57:07.336Z,26.87
2022-07-29T02:59:37.609Z,26.88
2022-07-29T03:02:06.396Z,26.83
2022-07-29T03:04:35.367Z,26.99
2022-07-29T03:07:03.076Z,27.02
2022-07-29T03:09:31.187Z,26.77
2022-07-29T03:11:58.187Z,26.75
2022-07-29T03:14:25.489Z,26.76
2022-07-29T03:16:53.050Z,26.79
2022-07-29T03:19:21.352Z,26.81
2022-07-29T03:21:48.315Z,26.46
2022-07-29T03:24:29.244Z,26.32
2022-07-29T03:26:57.543Z,26.31
2022-07-29T03:29:24.632Z,26.36
2022-07-29T03:31:51.403Z,26.50
2022-07-29T03:34:18.721Z,26.33
2022-07-29T03:36:45.732Z,26.37
2022-07-29T03:39:15.500Z,26.43
2022-07-29T03:41:43.573Z,26.58
2022-07-29T03:44:10.792Z,26.57
2022-07-29T03:46:40.077Z,26.47
2022-07-29T03:49:09.530Z,26.53
2022-07-29T03:51:36.407Z,26.55
2022-07-29T03:54:09.535Z,26.47
2022-07-29T03:56:40.852Z,26.39
2022-07-29T03:59:08.404Z,26.34
2022-07-29T04:01:36.128Z,26.22
2022-07-29T04:04:04.851Z,26.29
2022-07-29T04:06:39.457Z,26.14
2022-07-29T04:09:06.155Z,25.98
2022-07-29T04:12:03.209Z,25.97
2022-07-29T04:14:25.841Z,26.03
2022-07-29T04:16:52.589Z,26.42
2022-07-29T04:19:19.224Z,26.74
2022-07-29T04:21:46.272Z,26.98
2022-07-29T04:24:13.267Z,26.72
2022-07-29T04:26:40.006Z,26.63
2022-07-29T04:29:06.707Z,26.49
2022-07-29T04:31:33.498Z,26.37
2022-07-29T04:34:02.817Z,26.31
2022-07-29T04:36:30.866Z,26.22
2022-07-29T04:38:57.691Z,26.15
2022-07-29T04:41:32.747Z,26.17
2022-07-29T04:44:02.025Z,26.12
2022-07-29T04:46:29.194Z,26.17
2022-07-29T04:48:56.194Z,26.17
2022-07-29T04:51:23.113Z,26.15
2022-07-29T04:53:51.524Z,26.22
2022-07-29T04:56:18.136Z,26.14
2022-07-29T04:58:44.764Z,26.11
2022-07-29T05:01:12.039Z,26.12
2022-07-29T05:03:38.911Z,26.08
2022-07-29T05:06:05.605Z,26.27
2022-07-29T05:08:33.600Z,26.22
2022-07-29T05:11:11.321Z,26.32
2022-07-29T05:13:46.321Z,26.33
2022-07-29T05:16:14.630Z,26.54
2022-07-29T05:18:41.876Z,26.76
2022-07-29T05:21:08.571Z,26.69
2022-07-29T05:23:35.204Z,26.83
2022-07-29T05:26:01.895Z,26.85
2022-07-29T05:28:28.531Z,26.89
2022-07-29T05:30:55.246Z,27.04
2022-07-29T05:33:35.886Z,26.88
2022-07-29T05:36:08.235Z,26.78
2022-07-29T05:38:38.691Z,26.64
2022-07-29T05:41:06.383Z,26.61
2022-07-29T05:43:33.080Z,26.71
2022-07-29T05:46:00.102Z,26.70
2022-07-29T05:48:26.985Z,26.96
2022-07-29T05:50:54.120Z,27.09
2022-07-29T05:53:21.166Z,27.15
2022-07-29T05:55:48.814Z,27.16
2022-07-29T05:58:16.052Z,27.18
2022-07-29T06:00:42.998Z,27.27
2022-07-29T06:03:09.657Z,27.19
2022-07-29T06:05:36.300Z,26.96
2022-07-29T06:08:06.739Z,27.11
2022-07-29T06:10:34.672Z,27.23
2022-07-29T06:13:01.574Z,27.34
2022-07-29T06:15:28.226Z,27.30
2022-07-29T06:17:59.973Z,27.33
2022-07-29T06:20:32.113Z,27.26
2022-07-29T06:22:59.683Z,27.17
2022-07-29T06:25:26.859Z,27.31
2022-07-29T06:27:53.589Z,27.45
2022-07-29T06:30:20.535Z,27.38
2022-07-29T06:32:47.734Z,27.36
2022-07-29T06:38:01.171Z,27.24
2022-07-29T06:40:46.411Z,27.38
2022-07-29T06:43:13.045Z,27.47
2022-07-29T06:45:42.438Z,27.42
2022-07-29T06:48:10.543Z,27.70
2022-07-29T06:50:37.408Z,27.64
2022-07-29T06:53:04.517Z,27.59
2022-07-29T06:55:31.225Z,27.59
2022-07-29T06:57:57.921Z,27.61
2022-07-29T07:00:24.837Z,27.72
2022-07-29T07:02:51.667Z,27.74
2022-07-29T07:05:18.411Z,27.85
2022-07-29T07:07:45.223Z,27.78
2022-07-29T07:10:11.999Z,27.81
2022-07-29T07:12:38.675Z,27.87
2022-07-29T07:15:06.079Z,28.07
2022-07-29T07:17:32.744Z,27.94
2022-07-29T07:19:59.524Z,27.93
2022-07-29T07:22:26.245Z,27.93
2022-07-29T07:24:52.840Z,27.83
2022-07-29T07:27:19.501Z,28.03
2022-07-29T07:29:46.157Z,28.08
2022-07-29T07:32:14.441Z,28.09
2022-07-29T07:34:41.216Z,28.28
2022-07-29T07:37:09.439Z,28.21
2022-07-29T07:39:36.124Z,28.20
2022-07-29T07:42:02.770Z,28.15
2022-07-29T07:44:29.368Z,28.31
2022-07-29T07:46:56.024Z,28.27
2022-07-29T07:49:22.927Z,28.36
2022-07-29T07:51:50.806Z,28.28
2022-07-29T07:54:20.494Z,28.48
2022-07-29T07:56:50.005Z,28.47
2022-07-29T07:59:20.075Z,28.53
2022-07-29T08:01:48.402Z,28.53
2022-07-29T08:04:27.292Z,28.48
2022-07-29T08:06:55.624Z,28.60
2022-07-29T08:09:29.166Z,28.43
2022-07-29T08:11:56.974Z,28.49
2022-07-29T08:14:23.908Z,28.50
2022-07-29T08:16:50.675Z,28.54
2022-07-29T08:19:17.586Z,28.54
2022-07-29T08:21:44.253Z,28.69
2022-07-29T08:24:29.458Z,28.60
2022-07-29T08:26:56.122Z,28.83
2022-07-29T08:29:22.748Z,28.67
2022-07-29T08:31:49.511Z,28.69
2022-07-29T08:34:16.169Z,28.79
2022-07-29T08:36:42.930Z,28.75
2022-07-29T08:39:09.606Z,28.73
2022-07-29T08:41:36.532Z,28.91
2022-07-29T08:44:03.383Z,29.15
2022-07-29T08:46:30.036Z,29.23
2022-07-29T08:48:56.823Z,29.07
2022-07-29T08:51:26.653Z,29.24
2022-07-29T08:53:55.433Z,29.14
2022-07-29T08:56:24.323Z,29.23
2022-07-29T08:58:52.298Z,29.19
2022-07-29T09:01:35.787Z,29.22
2022-07-29T09:04:07.028Z,29.27
2022-07-29T09:06:38.359Z,29.22
2022-07-29T09:09:05.429Z,29.40
2022-07-29T09:11:38.686Z,29.32
2022-07-29T09:14:06.750Z,29.49
2022-07-29T09:16:53.831Z,29.45
2022-07-29T09:19:25.002Z,29.63
2022-07-29T09:21:58.586Z,29.65
2022-07-29T09:24:40.758Z,29.71
2022-07-29T09:27:19.898Z,29.74
2022-07-29T09:29:46.636Z,29.87
2022-07-29T09:32:13.458Z,30.02
2022-07-29T09:34:40.182Z,30.04
2022-07-29T09:37:06.905Z,30.10
2022-07-29T09:39:39.022Z,30.15
2022-07-29T09:42:07.162Z,30.09
2022-07-29T09:44:43.944Z,30.17
2022-07-29T09:47:10.911Z,30.43
2022-07-29T09:49:51.083Z,30.32
2022-07-29T09:52:17.815Z,30.38
2022-07-29T09:54:45.826Z,30.55
2022-07-29T09:57:30.867Z,30.53
2022-07-29T10:00:08.086Z,30.37
2022-07-29T10:02:38.050Z,30.25
2022-07-29T10:05:07.774Z,30.10
2022-07-29T10:07:51.748Z,30.06
2022-07-29T10:10:22.444Z,30.50
2022-07-29T10:13:01.761Z,30.61
2022-07-29T10:15:40.092Z,30.85
2022-07-29T10:18:08.168Z,30.89
2022-07-29T10:20:35.815Z,30.91
2022-07-29T10:23:02.630Z,30.92
2022-07-29T10:25:29.311Z,30.84
2022-07-29T10:27:56.344Z,31.41
2022-07-29T10:30:24.441Z,31.86
2022-07-29T10:33:00.197Z,32.21
2022-07-29T10:35:45.481Z,32.12
2022-07-29T10:38:50.880Z,31.64
2022-07-29T10:41:56.785Z,31.44
2022-07-29T10:44:26.004Z,31.84
2022-07-29T10:46:53.426Z,32.01
2022-07-29T10:49:30.525Z,32.60
2022-07-29T10:52:00.945Z,32.51
2022-07-29T10:54:36.620Z,32.26
2022-07-29T10:57:13.668Z,32.13
2022-07-29T10:59:43.396Z,32.34
2022-07-29T11:02:41.300Z,32.03
2022-07-29T11:05:19.696Z,32.00
2022-07-29T11:08:20.116Z,32.25
2022-07-29T11:11:08.055Z,32.59
2022-07-29T11:13:44.250Z,33.27
2022-07-29T11:16:11.354Z,33.15
2022-07-29T11:19:13.247Z,32.74
2022-07-29T11:21:54.070Z,32.77
2022-07-29T11:24:32.010Z,33.06
2022-07-29T11:27:19.819Z,32.83
2022-07-29T11:30:03.300Z,32.57
2022-07-29T11:32:38.990Z,32.35
2022-07-29T11:35:36.803Z,32.69
2022-07-29T11:38:23.301Z,32.55
2022-07-29T11:41:18.084Z,32.52
2022-07-29T11:43:50.840Z,32.46
2022-07-29T11:46:39.529Z,32.43
2022-07-29T11:49:09.194Z,32.82
2022-07-29T11:51:38.424Z,33.59
2022-07-29T11:54:27.486Z,34.13
2022-07-29T11:56:54.981Z,33.62
2022-07-29T11:59:22.390Z,33.12
2022-07-29T12:02:12.034Z,32.84
2022-07-29T12:04:51.479Z,33.23
2022-07-29T12:07:20.284Z,33.95
2022-07-29T12:09:56.987Z,33.79
2022-07-29T12:12:24.615Z,33.51
2022-07-29T12:14:51.877Z,33.20
2022-07-29T12:17:35.676Z,33.52
2022-07-29T12:20:05.046Z,33.60
2022-07-29T12:22:38.267Z,33.71
2022-07-29T12:25:32.390Z,33.71
2022-07-29T12:28:03.239Z,33.60
2022-07-29T12:30:41.592Z,33.62
2022-07-29T12:33:13.790Z,33.47
2022-07-29T12:35:41.079Z,33.76
2022-07-29T12:38:08.214Z,33.68
2022-07-29T12:40:34.859Z,33.37
2022-07-29T12:43:21.564Z,33.28
2022-07-29T12:45:54.394Z,32.92
2022-07-29T12:48:41.603Z,32.46
2022-07-29T12:51:10.090Z,32.48
2022-07-29T12:53:37.836Z,32.62
2022-07-29T12:56:15.535Z,32.90
2022-07-29T12:58:52.734Z,33.00
2022-07-29T13:01:21.138Z,32.67
2022-07-29T13:03:59.649Z,32.35
2022-07-29T13:06:36.602Z,32.34
2022-07-29T13:09:14.932Z,32.30
2022-07-29T13:11:48.333Z,32.03
2022-07-29T13:14:32.773Z,31.87
2022-07-29T13:17:14.010Z,31.90
2022-07-29T13:19:48.896Z,31.80
2022-07-29T13:22:17.750Z,31.86
2022-07-29T13:24:53.939Z,32.06
2022-07-29T13:27:25.708Z,32.15
2022-07-29T13:29:53.485Z,31.82
2022-07-29T13:32:28.188Z,31.86
2022-07-29T13:35:01.679Z,31.78
2022-07-29T13:37:35.090Z,31.65
2022-07-29T13:40:04.250Z,31.64
2022-07-29T13:42:31.504Z,31.98
2022-07-29T13:44:58.127Z,32.27
2022-07-29T13:47:32.772Z,32.01
2022-07-29T13:50:01.343Z,31.78
2022-07-29T13:52:29.017Z,31.72
2022-07-29T13:54:55.777Z,31.84
2022-07-29T13:57:22.419Z,31.71
2022-07-29T13:59:53.711Z,32.16
2022-07-29T14:02:21.493Z,32.53
2022-07-29T14:04:53.609Z,32.17
2022-07-29T14:07:20.489Z,32.22
2022-07-29T14:09:47.282Z,32.60
2022-07-29T14:12:14.011Z,32.87
2022-07-29T14:14:41.057Z,33.36
2022-07-29T14:17:08.058Z,33.56
2022-07-29T14:19:39.208Z,33.28
2022-07-29T14:22:07.530Z,33.41
2022-07-29T14:24:37.354Z,33.14
2022-07-29T14:27:05.613Z,32.84
2022-07-29T14:29:37.354Z,33.08
2022-07-29T14:32:09.097Z,33.41
2022-07-29T14:34:37.469Z,33.30
2022-07-29T14:37:06.777Z,33.38
2022-07-29T14:39:36.932Z,33.47
2022-07-29T14:42:06.385Z,33.25
2022-07-29T14:44:33.378Z,33.13
2022-07-29T14:47:01.363Z,32.83
2022-07-29T14:49:34.582Z,32.46
2022-07-29T14:52:01.476Z,32.38
2022-07-29T14:54:28.308Z,32.61
2022-07-29T14:56:58.026Z,32.54
2022-07-29T14:59:25.196Z,32.71
2022-07-29T15:01:52.084Z,32.82
2022-07-29T15:04:18.804Z,32.84
2022-07-29T15:06:45.507Z,32.84
2022-07-29T15:09:12.152Z,33.15
2022-07-29T15:11:39.994Z,33.23
2022-07-29T15:14:07.313Z,33.27
2022-07-29T15:16:37.074Z,32.93
2022-07-29T15:19:05.331Z,32.75
2022-07-29T15:21:32.343Z,32.22
2022-07-29T15:23:59.468Z,31.80
2022-07-29T15:26:26.663Z,31.66
2022-07-29T15:28:53.444Z,31.63
2022-07-29T15:31:20.268Z,31.37
2022-07-29T15:33:46.993Z,31.30
2022-07-29T15:36:30.323Z,31.14
2022-07-29T15:39:01.485Z,31.07
2022-07-29T15:41:28.365Z,30.97
2022-07-29T15:43:54.981Z,30.87
2022-07-29T15:46:40.228Z,31.04
2022-07-29T15:49:07.664Z,30.99
2022-07-29T15:51:34.675Z,31.06
2022-07-29T15:54:05.407Z,31.28
2022-07-29T15:56:32.654Z,31.32
2022-07-29T15:59:00.038Z,31.28
2022-07-29T16:01:28.444Z,31.25
2022-07-29T16:03:55.360Z,31.35
2022-07-29T16:06:22.684Z,31.42
2022-07-29T16:08:49.480Z,31.67
2022-07-29T16:11:17.897Z,31.74
2022-07-29T16:13:44.556Z,32.14
2022-07-29T16:16:13.002Z,32.52
2022-07-29T16:18:39.771Z,32.51
2022-07-29T16:21:06.475Z,32.15
2022-07-29T16:23:33.216Z,31.78
2022-07-29T16:26:01.075Z,31.69
2022-07-29T16:28:29.254Z,31.55
2022-07-29T16:30:55.970Z,31.30
2022-07-29T16:33:23.673Z,31.10
2022-07-29T16:35:51.540Z,30.99
2022-07-29T16:38:18.775Z,30.91
2022-07-29T16:40:46.613Z,30.76
2022-07-29T16:43:13.640Z,30.96
2022-07-29T16:45:45.297Z,30.77
2022-07-29T16:48:18.069Z,30.51
2022-07-29T16:50:45.529Z,30.32
2022-07-29T16:53:12.158Z,30.49
2022-07-29T16:55:39.016Z,30.41
2022-07-29T16:58:09.816Z,30.42
2022-07-29T17:03:11.528Z,30.22
2022-07-29T17:05:52.526Z,30.19
2022-07-29T17:08:21.372Z,30.16
2022-07-29T17:10:48.285Z,30.35
2022-07-29T17:13:15.240Z,30.18
2022-07-29T17:15:44.688Z,30.24
2022-07-29T17:18:12.855Z,30.29
2022-07-29T17:20:41.316Z,30.20
2022-07-29T17:23:08.091Z,30.31
2022-07-29T17:25:34.936Z,30.52
2022-07-29T17:28:01.716Z,30.42
2022-07-29T17:30:29.668Z,30.47
2022-07-29T17:32:56.816Z,30.38
2022-07-29T17:35:42.615Z,30.40
2022-07-29T17:38:09.366Z,30.50
2022-07-29T17:40:36.129Z,30.54
2022-07-29T17:43:04.805Z,30.61
2022-07-29T17:45:49.817Z,30.52
2022-07-29T17:48:17.784Z,30.57
2022-07-29T17:50:44.713Z,30.46
2022-07-29T17:53:16.211Z,30.22
2022-07-29T17:55:48.648Z,30.24
2022-07-29T17:58:16.423Z,30.18
2022-07-29T18:00:43.796Z,30.09
2022-07-29T18:03:10.990Z,30.09
2022-07-29T18:05:37.780Z,30.08
2022-07-29T18:08:05.218Z,30.07
2022-07-29T18:10:32.236Z,30.26
2022-07-29T18:12:58.952Z,30.14
2022-07-29T18:15:25.822Z,29.98
2022-07-29T18:17:57.581Z,29.98
2022-07-29T18:20:27.946Z,30.12
2022-07-29T18:22:55.647Z,29.85
2022-07-29T18:25:22.583Z,29.91
2022-07-29T18:27:49.938Z,29.77
2022-07-29T18:30:16.854Z,29.83
2022-07-29T18:32:59.290Z,29.85
2022-07-29T18:35:30.824Z,29.85
2022-07-29T18:38:02.014Z,29.77
2022-07-29T18:40:29.699Z,29.77
2022-07-29T18:42:57.201Z,29.79
2022-07-29T18:45:28.615Z,29.85
2022-07-29T18:47:56.025Z,29.55
2022-07-29T18:50:28.840Z,29.56
2022-07-29T18:52:58.789Z,29.66
2022-07-29T18:55:27.206Z,29.77
2022-07-29T18:57:56.068Z,29.83
2022-07-29T19:00:24.789Z,29.91
2022-07-29T19:02:52.627Z,29.93
2022-07-29T19:05:19.683Z,29.71
2022-07-29T19:07:47.501Z,29.74
2022-07-29T19:10:14.581Z,29.78
2022-07-29T19:12:41.604Z,29.74
2022-07-29T19:15:10.949Z,29.74
2022-07-29T19:17:38.708Z,29.92
2022-07-29T19:20:07.284Z,29.86
2022-07-29T19:22:34.505Z,29.75
2022-07-29T19:25:01.451Z,29.70
2022-07-29T19:27:28.454Z,29.72
2022-07-29T19:29:58.937Z,29.54
2022-07-29T19:32:26.342Z,29.62
2022-07-29T19:35:12.127Z,29.64
2022-07-29T19:37:39.072Z,29.65
2022-07-29T19:40:07.073Z,29.48
2022-07-29T19:42:34.190Z,29.36
2022-07-29T19:45:02.104Z,29.01
2022-07-29T19:47:28.773Z,28.96
2022-07-29T19:49:56.156Z,29.20
2022-07-29T19:52:22.790Z,28.76
2022-07-29T19:54:49.668Z,28.46
2022-07-29T19:57:16.633Z,28.60
2022-07-29T19:59:44.989Z,28.60
2022-07-29T20:02:12.547Z,28.29
2022-07-29T20:04:40.251Z,28.07
2022-07-29T20:07:07.642Z,27.85
2022-07-29T20:09:34.541Z,27.92
2022-07-29T20:12:01.154Z,28.17
2022-07-29T20:14:27.918Z,28.27
2022-07-29T20:16:54.841Z,28.36
2022-07-29T20:19:21.809Z,28.27
2022-07-29T20:21:48.455Z,28.10
2022-07-29T20:24:15.230Z,28.22
2022-07-29T20:26:41.890Z,28.35
2022-07-29T20:29:09.193Z,28.18
2022-07-29T20:31:36.175Z,28.15
2022-07-29T20:34:03.208Z,28.30
2022-07-29T20:36:30.028Z,28.24
2022-07-29T20:38:57.022Z,28.15
2022-07-29T20:41:23.739Z,28.11
2022-07-29T20:43:50.408Z,28.18
2022-07-29T20:46:18.187Z,28.04
2022-07-29T20:48:45.765Z,28.07
2022-07-29T20:51:13.218Z,28.02
2022-07-29T20:53:41.132Z,28.08
2022-07-29T20:56:08.041Z,28.02
2022-07-29T20:58:36.401Z,28.12
2022-07-29T21:01:05.030Z,28.16
2022-07-29T21:03:33.000Z,28.06
2022-07-29T21:06:00.382Z,28.16
2022-07-29T21:08:27.161Z,28.00
2022-07-29T21:10:54.466Z,27.83
2022-07-29T21:13:23.174Z,27.79
2022-07-29T21:15:51.674Z,27.89
2022-07-29T21:18:32.614Z,27.69
2022-07-29T21:21:04.591Z,27.87
2022-07-29T21:23:31.943Z,27.84
2022-07-29T21:25:58.795Z,27.79
2022-07-29T21:28:40.218Z,27.89
2022-07-29T21:31:12.615Z,27.70
2022-07-29T21:33:42.600Z,27.75
2022-07-29T21:36:42.706Z,27.78
2022-07-29T21:38:58.357Z,27.84
2022-07-29T21:41:25.628Z,27.90
2022-07-29T21:43:54.678Z,27.93
2022-07-29T21:46:26.187Z,27.88
2022-07-29T21:48:53.016Z,27.87
2022-07-29T21:51:19.714Z,27.87
2022-07-29T21:53:46.327Z,27.75
2022-07-29T21:56:14.924Z,27.80
2022-07-29T21:58:43.296Z,27.76
2022-07-29T22:01:10.072Z,27.83
2022-07-29T22:03:36.720Z,27.68
2022-07-29T22:06:03.477Z,27.68
2022-07-29T22:08:30.231Z,27.62
2022-07-29T22:10:56.862Z,27.70
2022-07-29T22:13:23.506Z,27.71
2022-07-29T22:15:50.501Z,27.55
2022-07-29T22:18:20.463Z,27.49
2022-07-29T22:20:47.520Z,27.49
2022-07-29T22:23:14.180Z,27.67
2022-07-29T22:25:40.935Z,27.60
2022-07-29T22:28:07.621Z,27.75
2022-07-29T22:30:37.413Z,27.69
2022-07-29T22:33:04.218Z,27.54
2022-07-29T22:35:30.944Z,27.44
2022-07-29T22:38:01.175Z,27.40
2022-07-29T22:40:30.494Z,27.40
2022-07-29T22:42:57.530Z,27.20
2022-07-29T22:45:24.632Z,27.41
2022-07-29T22:47:55.947Z,27.44
2022-07-29T22:50:26.445Z,27.28
2022-07-29T22:52:53.319Z,27.28
2022-07-29T22:55:20.095Z,27.35
2022-07-29T22:57:46.822Z,27.03
2022-07-29T23:00:14.293Z,27.10
2022-07-29T23:02:41.572Z,27.10
2022-07-29T23:05:09.265Z,27.10
2022-07-29T23:07:36.203Z,27.11
2022-07-29T23:10:04.696Z,27.05
2022-07-29T23:12:32.600Z,27.08
2022-07-29T23:14:59.307Z,27.02
2022-07-29T23:17:27.541Z,27.00
2022-07-29T23:19:54.218Z,26.91
2022-07-29T23:22:20.817Z,26.99
2022-07-29T23:24:48.009Z,26.92
2022-07-29T23:27:14.702Z,26.82
2022-07-29T23:29:42.622Z,27.00
2022-07-29T23:32:09.323Z,26.94
2022-07-29T23:34:36.061Z,26.83
2022-07-29T23:37:03.145Z,26.58
2022-07-29T23:39:30.201Z,26.84
2022-07-29T23:41:56.990Z,26.81
2022-07-29T23:44:24.044Z,26.59
2022-07-29T23:46:50.874Z,26.54
2022-07-29T23:49:17.918Z,26.69
2022-07-29T23:51:44.715Z,26.82
2022-07-29T23:54:11.522Z,26.71
2022-07-29T23:56:38.296Z,26.71
2022-07-29T23:59:05.900Z,26.40
